createdAt,value
2023-08-30T00:00:27.136Z,49.01
2023-08-30T00:02:55.845Z,49.36
2023-08-30T00:05:26.809Z,49.35
2023-08-30T00:07:56.458Z,49.50
2023-08-30T00:10:25.361Z,49.54
2023-08-30T00:12:54.136Z,49.81
2023-08-30T00:15:22.896Z,49.73
2023-08-30T00:17:53.923Z,49.97
2023-08-30T00:20:23.709Z,49.76
2023-08-30T00:22:52.953Z,50.05
2023-08-30T00:25:22.711Z,50.50
2023-08-30T00:27:51.395Z,50.22
2023-08-30T00:30:20.663Z,50.13
2023-08-30T00:32:49.574Z,50.16
2023-08-30T00:35:18.778Z,50.14
2023-08-30T00:37:47.714Z,50.26
2023-08-30T00:40:16.453Z,49.96
2023-08-30T00:42:46.116Z,49.85
2023-08-30T00:45:15.316Z,49.61
2023-08-30T00:47:44.453Z,49.96
2023-08-30T00:50:14.611Z,49.60
2023-08-30T00:52:43.904Z,49.48
2023-08-30T00:55:13.233Z,49.61
2023-08-30T00:57:42.295Z,49.48
2023-08-30T01:00:13.138Z,49.31
2023-08-30T01:02:42.872Z,49.66
2023-08-30T01:05:11.974Z,49.38
2023-08-30T01:07:40.914Z,49.61
2023-08-30T01:10:10.064Z,49.02
2023-08-30T01:12:51.537Z,49.28
2023-08-30T01:15:22.914Z,49.05
2023-08-30T01:17:54.388Z,49.34
2023-08-30T01:20:26.131Z,48.81
2023-08-30T01:23:12.436Z,49.08
2023-08-30T01:26:22.137Z,49.64
2023-08-30T01:28:53.823Z,49.54
2023-08-30T01:31:25.436Z,49.70
2023-08-30T01:33:54.311Z,49.58
2023-08-30T01:36:24.226Z,50.30
2023-08-30T01:38:54.811Z,50.06
2023-08-30T01:41:25.072Z,50.02
2023-08-30T01:43:55.475Z,49.73
2023-08-30T01:46:26.336Z,49.63
2023-08-30T01:48:56.691Z,50.39
2023-08-30T01:51:26.712Z,49.67
2023-08-30T01:53:58.156Z,49.74
2023-08-30T01:56:27.032Z,50.01
2023-08-30T01:58:55.890Z,49.72
2023-08-30T02:01:24.540Z,50.16
2023-08-30T02:03:54.492Z,50.43
2023-08-30T02:06:34.673Z,50.40
2023-08-30T02:09:28.633Z,49.93
2023-08-30T02:11:59.331Z,50.14
2023-08-30T02:14:31.987Z,50.10
2023-08-30T02:17:00.917Z,50.64
2023-08-30T02:19:29.938Z,51.11
2023-08-30T02:21:58.762Z,51.65
2023-08-30T02:24:27.557Z,52.20
2023-08-30T02:26:59.117Z,52.38
2023-08-30T02:29:27.758Z,52.80
2023-08-30T02:31:56.503Z,53.65
2023-08-30T02:34:25.251Z,53.55
2023-08-30T02:36:54.629Z,53.12
2023-08-30T02:39:23.731Z,53.35
2023-08-30T02:41:52.513Z,53.19
2023-08-30T02:44:22.436Z,53.62
2023-08-30T02:46:51.237Z,53.45
2023-08-30T02:49:19.958Z,53.08
2023-08-30T02:51:48.684Z,53.18
2023-08-30T02:54:17.377Z,52.39
2023-08-30T02:56:46.576Z,51.46
2023-08-30T02:59:15.134Z,51.04
2023-08-30T03:01:45.957Z,50.63
2023-08-30T03:04:17.223Z,50.21
2023-08-30T03:06:46.194Z,50.21
2023-08-30T03:09:16.295Z,49.53
2023-08-30T03:11:46.778Z,49.03
2023-08-30T03:14:17.418Z,49.32
2023-08-30T03:16:48.497Z,49.59
2023-08-30T03:19:19.457Z,49.29
2023-08-30T03:21:48.394Z,49.59
2023-08-30T03:24:18.333Z,49.26
2023-08-30T03:26:47.183Z,49.58
2023-08-30T03:29:16.135Z,49.87
2023-08-30T03:31:47.874Z,49.38
2023-08-30T03:34:16.677Z,48.92
2023-08-30T03:36:46.521Z,48.78
2023-08-30T03:39:16.539Z,48.89
2023-08-30T03:41:45.035Z,48.37
2023-08-30T03:44:13.795Z,48.58
2023-08-30T03:46:42.629Z,47.66
2023-08-30T03:49:11.376Z,47.18
2023-08-30T03:51:40.507Z,47.02
2023-08-30T03:54:10.335Z,46.51
2023-08-30T03:56:38.989Z,46.41
2023-08-30T03:59:07.776Z,47.06
2023-08-30T04:01:36.599Z,47.07
2023-08-30T04:04:06.698Z,47.53
2023-08-30T04:06:35.604Z,47.17
2023-08-30T04:09:06.374Z,46.89
2023-08-30T04:11:35.427Z,46.44
2023-08-30T04:14:04.315Z,46.82
2023-08-30T04:16:33.143Z,45.91
2023-08-30T04:19:01.932Z,46.26
2023-08-30T04:21:31.592Z,46.76
2023-08-30T04:24:00.543Z,46.14
2023-08-30T04:26:29.281Z,45.87
2023-08-30T04:28:58.749Z,45.81
2023-08-30T04:31:27.595Z,45.92
2023-08-30T04:33:57.254Z,45.72
2023-08-30T04:36:25.915Z,45.55
2023-08-30T04:39:02.432Z,45.37
2023-08-30T04:41:35.452Z,45.62
2023-08-30T04:44:04.303Z,46.19
2023-08-30T04:46:33.034Z,46.25
2023-08-30T04:49:01.752Z,46.07
2023-08-30T04:51:30.353Z,45.92
2023-08-30T04:53:59.691Z,46.79
2023-08-30T04:56:28.732Z,46.44
2023-08-30T04:58:59.074Z,46.72
2023-08-30T05:01:28.021Z,46.02
2023-08-30T05:03:59.533Z,46.11
2023-08-30T05:06:28.953Z,46.70
2023-08-30T05:08:57.953Z,46.29
2023-08-30T05:11:26.751Z,46.08
2023-08-30T05:13:56.084Z,46.56
2023-08-30T05:16:25.269Z,46.35
2023-08-30T05:18:54.855Z,46.11
2023-08-30T05:21:23.678Z,45.53
2023-08-30T05:23:52.944Z,45.78
2023-08-30T05:26:21.914Z,45.75
2023-08-30T05:28:50.633Z,46.20
2023-08-30T05:31:20.146Z,46.86
2023-08-30T05:34:15.056Z,45.87
2023-08-30T05:36:43.870Z,45.56
2023-08-30T05:39:36.854Z,46.37
2023-08-30T05:42:06.022Z,46.31
2023-08-30T05:44:34.810Z,46.36
2023-08-30T05:47:03.633Z,46.80
2023-08-30T05:49:32.492Z,46.81
2023-08-30T05:52:01.266Z,48.37
2023-08-30T05:54:33.307Z,47.43
2023-08-30T05:57:02.515Z,46.73
2023-08-30T05:59:31.517Z,47.58
2023-08-30T06:02:00.190Z,47.24
2023-08-30T06:04:29.321Z,47.19
2023-08-30T06:06:58.096Z,48.10
2023-08-30T06:09:27.333Z,46.67
2023-08-30T06:11:57.354Z,48.09
2023-08-30T06:14:31.434Z,48.02
2023-08-30T06:17:00.357Z,48.16
2023-08-30T06:19:29.220Z,47.00
2023-08-30T06:21:57.954Z,47.19
2023-08-30T06:24:26.775Z,47.01
2023-08-30T06:26:55.398Z,47.38
2023-08-30T06:29:24.123Z,47.50
2023-08-30T06:31:53.055Z,47.44
2023-08-30T06:34:21.836Z,47.81
2023-08-30T06:36:50.795Z,47.76
2023-08-30T06:39:20.442Z,47.62
2023-08-30T06:41:49.492Z,47.29
2023-08-30T06:44:18.914Z,46.30
2023-08-30T06:46:47.758Z,45.79
2023-08-30T06:49:16.493Z,45.96
2023-08-30T06:51:45.175Z,46.74
2023-08-30T06:54:14.037Z,46.32
2023-08-30T06:56:42.738Z,45.89
2023-08-30T06:59:11.695Z,45.72
2023-08-30T07:01:40.431Z,46.86
2023-08-30T07:04:12.072Z,46.16
2023-08-30T07:06:40.824Z,45.66
2023-08-30T07:09:09.650Z,45.18
2023-08-30T07:11:38.453Z,44.75
2023-08-30T07:14:07.176Z,44.51
2023-08-30T07:16:35.879Z,44.89
2023-08-30T07:19:04.816Z,44.67
2023-08-30T07:21:34.714Z,44.25
2023-08-30T07:24:03.689Z,44.52
2023-08-30T07:26:32.312Z,44.75
2023-08-30T07:29:01.044Z,44.82
2023-08-30T07:31:29.899Z,44.77
2023-08-30T07:34:00.056Z,44.94
2023-08-30T07:36:45.105Z,44.38
2023-08-30T07:39:15.781Z,44.88
2023-08-30T07:41:44.618Z,44.33
2023-08-30T07:44:13.160Z,44.99
2023-08-30T07:46:42.026Z,44.30
2023-08-30T07:49:10.810Z,44.43
2023-08-30T07:51:39.688Z,43.88
2023-08-30T07:54:11.071Z,44.42
2023-08-30T07:56:39.812Z,44.56
2023-08-30T07:59:08.423Z,44.29
2023-08-30T08:01:37.279Z,44.12
2023-08-30T08:04:08.112Z,43.99
2023-08-30T08:06:38.104Z,44.74
2023-08-30T08:09:09.314Z,44.38
2023-08-30T08:11:38.215Z,44.68
2023-08-30T08:14:07.007Z,45.18
2023-08-30T08:16:36.155Z,44.67
2023-08-30T08:19:04.931Z,44.61
2023-08-30T08:21:33.870Z,45.06
2023-08-30T08:24:03.593Z,44.81
2023-08-30T08:26:32.386Z,44.16
2023-08-30T08:29:01.777Z,43.73
2023-08-30T08:31:30.613Z,43.66
2023-08-30T08:34:14.173Z,43.92
2023-08-30T08:36:44.449Z,44.11
2023-08-30T08:39:15.813Z,43.41
2023-08-30T08:41:46.219Z,43.58
2023-08-30T08:44:18.912Z,43.68
2023-08-30T08:46:49.929Z,43.69
2023-08-30T08:49:19.478Z,44.13
2023-08-30T08:51:48.476Z,44.60
2023-08-30T08:54:20.414Z,44.53
2023-08-30T08:56:52.352Z,44.77
2023-08-30T08:59:22.791Z,45.22
2023-08-30T09:01:51.866Z,45.08
2023-08-30T09:04:23.956Z,45.70
2023-08-30T09:06:52.634Z,45.70
2023-08-30T09:09:25.172Z,45.35
2023-08-30T09:11:53.952Z,46.08
2023-08-30T09:14:22.961Z,46.55
2023-08-30T09:17:02.785Z,45.99
2023-08-30T09:19:32.262Z,46.24
2023-08-30T09:22:02.506Z,46.75
2023-08-30T09:24:41.483Z,47.17
2023-08-30T09:27:10.553Z,47.95
2023-08-30T09:29:39.753Z,48.79
2023-08-30T09:32:10.879Z,49.83
2023-08-30T09:34:48.826Z,50.17
2023-08-30T09:37:24.897Z,49.92
2023-08-30T09:39:54.314Z,50.32
2023-08-30T09:42:24.116Z,50.11
2023-08-30T09:44:53.211Z,50.55
2023-08-30T09:47:22.319Z,50.18
2023-08-30T09:49:53.686Z,49.90
2023-08-30T09:52:25.516Z,50.22
2023-08-30T09:54:55.467Z,50.91
2023-08-30T09:57:24.923Z,50.89
2023-08-30T09:59:53.616Z,51.25
2023-08-30T10:02:23.254Z,51.67
2023-08-30T10:04:53.068Z,52.38
2023-08-30T10:07:23.513Z,53.05
2023-08-30T10:10:09.147Z,53.13
2023-08-30T10:12:40.991Z,53.78
2023-08-30T10:15:10.264Z,53.94
2023-08-30T10:17:43.432Z,55.09
2023-08-30T10:20:14.030Z,55.70
2023-08-30T10:22:45.766Z,56.19
2023-08-30T10:25:21.166Z,56.53
2023-08-30T10:27:51.873Z,57.08
2023-08-30T10:30:23.394Z,58.78
2023-08-30T10:32:52.369Z,59.81
2023-08-30T10:35:21.550Z,60.69
2023-08-30T10:37:57.756Z,61.43
2023-08-30T10:40:26.746Z,62.15
2023-08-30T10:43:05.875Z,64.01
2023-08-30T10:45:37.735Z,64.42
2023-08-30T10:48:06.929Z,65.71
2023-08-30T10:50:36.663Z,66.54
2023-08-30T10:53:14.842Z,67.85
2023-08-30T10:55:43.557Z,68.76
2023-08-30T10:58:18.950Z,70.45
2023-08-30T11:00:52.114Z,69.38
2023-08-30T11:03:31.380Z,70.00
2023-08-30T11:06:05.927Z,70.62
2023-08-30T11:08:37.135Z,71.63
2023-08-30T11:11:12.595Z,72.31
2023-08-30T11:13:41.432Z,72.69
2023-08-30T11:16:11.338Z,73.17
2023-08-30T11:18:44.252Z,73.06
2023-08-30T11:21:15.731Z,73.34
2023-08-30T11:23:44.512Z,73.16
2023-08-30T11:26:14.515Z,72.94
2023-08-30T11:28:47.952Z,74.14
2023-08-30T11:31:24.454Z,73.03
2023-08-30T11:33:55.090Z,72.85
2023-08-30T11:36:30.167Z,73.07
2023-08-30T11:38:59.860Z,73.12
2023-08-30T11:41:29.451Z,73.82
2023-08-30T11:44:00.818Z,73.99
2023-08-30T11:46:29.637Z,74.99
2023-08-30T11:48:58.377Z,74.59
2023-08-30T11:51:27.472Z,74.67
2023-08-30T11:53:56.290Z,74.72
2023-08-30T11:56:26.092Z,74.97
2023-08-30T11:58:54.830Z,75.61
2023-08-30T12:01:24.215Z,76.04
2023-08-30T12:03:52.946Z,76.69
2023-08-30T12:06:25.105Z,76.83
2023-08-30T12:09:00.647Z,77.64
2023-08-30T12:11:31.032Z,76.95
2023-08-30T12:14:04.964Z,77.30
2023-08-30T12:16:36.475Z,77.73
2023-08-30T12:19:17.014Z,78.19
2023-08-30T12:21:45.870Z,77.87
2023-08-30T12:24:14.709Z,77.94
2023-08-30T12:26:46.031Z,77.62
2023-08-30T12:29:14.775Z,78.54
2023-08-30T12:31:43.492Z,78.87
2023-08-30T12:34:12.252Z,79.27
2023-08-30T12:36:41.394Z,79.40
2023-08-30T12:39:12.194Z,79.34
2023-08-30T12:41:43.613Z,79.67
2023-08-30T12:44:12.873Z,80.09
2023-08-30T12:46:41.973Z,80.47
2023-08-30T12:49:10.794Z,80.44
2023-08-30T12:51:39.680Z,80.93
2023-08-30T12:54:08.547Z,81.65
2023-08-30T12:56:37.247Z,81.69
2023-08-30T12:59:06.573Z,82.02
2023-08-30T13:01:35.506Z,82.11
2023-08-30T13:04:05.413Z,82.68
2023-08-30T13:06:34.138Z,82.81
2023-08-30T13:09:03.028Z,83.12
2023-08-30T13:11:34.142Z,84.10
2023-08-30T13:14:03.536Z,83.84
2023-08-30T13:16:32.319Z,84.08
2023-08-30T13:19:01.152Z,84.45
2023-08-30T13:21:40.558Z,84.83
2023-08-30T13:24:12.554Z,84.83
2023-08-30T13:26:41.180Z,85.34
2023-08-30T13:29:10.053Z,85.20
2023-08-30T13:31:39.236Z,85.67
2023-08-30T13:34:07.853Z,85.69
2023-08-30T13:36:38.475Z,85.85
2023-08-30T13:39:07.303Z,85.55
2023-08-30T13:41:37.754Z,86.16
2023-08-30T13:44:06.931Z,85.94
2023-08-30T13:46:36.454Z,85.87
2023-08-30T13:49:05.276Z,85.88
2023-08-30T13:51:34.852Z,85.56
2023-08-30T13:54:05.176Z,85.76
2023-08-30T13:56:35.331Z,85.72
2023-08-30T13:59:04.175Z,85.64
2023-08-30T14:01:33.355Z,85.82
2023-08-30T14:04:02.874Z,85.80
2023-08-30T14:06:34.459Z,85.61
2023-08-30T14:09:06.232Z,85.26
2023-08-30T14:11:36.733Z,85.00
2023-08-30T14:14:05.505Z,85.16
2023-08-30T14:16:35.272Z,84.92
2023-08-30T14:19:07.275Z,85.01
2023-08-30T14:21:36.495Z,85.13
2023-08-30T14:24:05.577Z,84.89
2023-08-30T14:26:34.999Z,84.40
2023-08-30T14:29:04.119Z,84.90
2023-08-30T14:31:33.340Z,84.72
2023-08-30T14:34:02.303Z,84.86
2023-08-30T14:36:32.136Z,84.91
2023-08-30T14:39:01.032Z,84.64
2023-08-30T14:41:34.193Z,84.60
2023-08-30T14:44:05.956Z,85.08
2023-08-30T14:46:35.275Z,84.96
2023-08-30T14:49:04.259Z,85.04
2023-08-30T14:51:33.516Z,85.38
2023-08-30T14:54:02.805Z,85.41
2023-08-30T14:56:32.451Z,85.67
2023-08-30T14:59:01.754Z,85.88
2023-08-30T15:01:30.881Z,85.82
2023-08-30T15:04:10.171Z,85.77
2023-08-30T15:06:41.907Z,86.35
2023-08-30T15:09:13.996Z,86.31
2023-08-30T15:11:42.897Z,86.30
2023-08-30T15:14:12.067Z,86.36
2023-08-30T15:16:41.252Z,86.59
2023-08-30T15:19:10.603Z,86.48
2023-08-30T15:24:18.096Z,86.65
2023-08-30T15:26:47.455Z,86.99
2023-08-30T15:29:16.335Z,87.19
2023-08-30T15:31:47.280Z,86.90
2023-08-30T15:34:16.330Z,87.12
2023-08-30T15:36:45.242Z,87.59
2023-08-30T15:39:18.835Z,88.01
2023-08-30T15:41:50.730Z,87.94
2023-08-30T15:44:19.594Z,88.08
2023-08-30T15:46:49.234Z,88.41
2023-08-30T15:49:18.513Z,89.09
2023-08-30T15:51:47.879Z,89.68
2023-08-30T15:54:19.072Z,90.01
2023-08-30T15:56:48.730Z,90.29
2023-08-30T15:59:17.890Z,90.83
2023-08-30T16:01:47.334Z,91.19
2023-08-30T16:04:16.631Z,91.52
2023-08-30T16:06:46.639Z,91.51
2023-08-30T16:09:16.470Z,92.10
2023-08-30T16:11:50.753Z,92.03
2023-08-30T16:14:19.613Z,92.47
2023-08-30T16:16:51.415Z,92.33
2023-08-30T16:19:21.113Z,92.63
2023-08-30T16:21:54.061Z,92.78
2023-08-30T16:24:27.968Z,93.02
2023-08-30T16:27:04.826Z,93.12
2023-08-30T16:29:33.612Z,93.18
2023-08-30T16:32:02.689Z,93.51
2023-08-30T16:34:31.512Z,93.64
2023-08-30T16:37:00.098Z,93.49
2023-08-30T16:39:28.893Z,93.64
2023-08-30T16:41:57.950Z,93.71
2023-08-30T16:44:26.691Z,93.72
2023-08-30T16:46:56.010Z,93.74
2023-08-30T16:49:25.280Z,93.78
2023-08-30T16:51:59.009Z,93.68
2023-08-30T16:54:28.088Z,93.71
2023-08-30T16:56:58.093Z,93.67
2023-08-30T16:59:27.317Z,93.49
2023-08-30T17:01:56.421Z,93.39
2023-08-30T17:04:25.773Z,93.53
2023-08-30T17:07:01.156Z,93.28
2023-08-30T17:09:35.355Z,93.29
2023-08-30T17:12:04.890Z,93.45
2023-08-30T17:14:34.311Z,93.21
2023-08-30T17:17:03.747Z,93.14
2023-08-30T17:19:33.229Z,92.93
2023-08-30T17:22:01.959Z,92.92
2023-08-30T17:24:33.290Z,92.66
2023-08-30T17:27:05.989Z,92.52
2023-08-30T17:29:35.082Z,92.23
2023-08-30T17:32:04.596Z,92.19
2023-08-30T17:34:33.329Z,92.12
2023-08-30T17:37:05.489Z,92.19
2023-08-30T17:39:34.371Z,92.09
2023-08-30T17:42:03.136Z,92.17
2023-08-30T17:44:34.903Z,91.71
2023-08-30T17:47:05.389Z,91.61
2023-08-30T17:49:34.301Z,92.02
2023-08-30T17:52:03.130Z,91.81
2023-08-30T17:54:35.602Z,91.36
2023-08-30T17:57:04.661Z,91.78
2023-08-30T17:59:35.074Z,91.14
2023-08-30T18:02:04.222Z,91.48
2023-08-30T18:04:34.977Z,91.73
2023-08-30T18:07:05.087Z,91.51
2023-08-30T18:09:33.915Z,91.45
2023-08-30T18:12:05.309Z,91.31
2023-08-30T18:14:33.988Z,91.70
2023-08-30T18:17:02.712Z,91.78
2023-08-30T18:19:31.509Z,90.83
2023-08-30T18:22:02.564Z,91.13
2023-08-30T18:24:32.393Z,90.66
2023-08-30T18:27:01.130Z,91.29
2023-08-30T18:29:30.372Z,91.28
2023-08-30T18:31:59.598Z,91.28
2023-08-30T18:34:28.855Z,91.27
2023-08-30T18:36:59.807Z,91.86
2023-08-30T18:39:28.792Z,90.89
2023-08-30T18:41:57.709Z,91.78
2023-08-30T18:44:26.568Z,91.56
2023-08-30T18:46:55.506Z,91.70
2023-08-30T18:49:25.207Z,91.85
2023-08-30T18:51:54.348Z,91.92
2023-08-30T18:54:25.423Z,91.91
2023-08-30T18:56:54.568Z,91.80
2023-08-30T18:59:23.898Z,91.29
2023-08-30T19:01:52.702Z,91.96
2023-08-30T19:04:22.302Z,91.73
2023-08-30T19:06:50.872Z,92.17
2023-08-30T19:09:20.873Z,92.55
2023-08-30T19:11:49.552Z,91.85
2023-08-30T19:14:18.216Z,92.18
2023-08-30T19:16:47.044Z,92.51
2023-08-30T19:19:15.971Z,92.63
2023-08-30T19:21:44.914Z,92.81
2023-08-30T19:24:13.728Z,92.76
2023-08-30T19:26:42.817Z,92.58
2023-08-30T19:29:12.556Z,93.15
2023-08-30T19:31:41.206Z,92.73
2023-08-30T19:34:10.032Z,93.14
2023-08-30T19:36:38.934Z,92.65
2023-08-30T19:39:09.638Z,92.64
2023-08-30T19:41:38.418Z,93.32
2023-08-30T19:44:07.549Z,92.88
2023-08-30T19:46:36.350Z,92.76
2023-08-30T19:49:05.366Z,92.81
2023-08-30T19:51:37.353Z,92.80
2023-08-30T19:54:06.168Z,93.35
2023-08-30T19:56:35.194Z,93.87
2023-08-30T19:59:05.630Z,92.88
2023-08-30T20:01:38.138Z,92.92
2023-08-30T20:04:07.037Z,93.69
2023-08-30T20:06:35.691Z,93.76
2023-08-30T20:09:04.922Z,93.23
2023-08-30T20:11:33.652Z,93.94
2023-08-30T20:14:02.275Z,94.09
2023-08-30T20:16:31.182Z,93.52
2023-08-30T20:19:00.052Z,93.59
2023-08-30T20:21:28.635Z,94.16
2023-08-30T20:23:57.256Z,94.01
2023-08-30T20:26:26.228Z,94.05
2023-08-30T20:28:54.717Z,93.53
2023-08-30T20:31:23.614Z,94.10
2023-08-30T20:33:54.401Z,93.67
2023-08-30T20:36:31.007Z,94.13
2023-08-30T20:39:07.846Z,94.66
2023-08-30T20:41:40.380Z,94.28
2023-08-30T20:44:10.760Z,94.23
2023-08-30T20:46:39.120Z,94.30
2023-08-30T20:49:08.674Z,94.38
2023-08-30T20:51:39.232Z,94.73
2023-08-30T20:54:07.644Z,94.62
2023-08-30T20:56:36.002Z,94.51
2023-08-30T20:59:06.616Z,94.66
2023-08-30T21:01:35.300Z,94.40
2023-08-30T21:04:04.604Z,94.87
2023-08-30T21:06:35.473Z,94.95
2023-08-30T21:09:04.616Z,95.35
2023-08-30T21:11:33.565Z,94.53
2023-08-30T21:14:02.441Z,94.66
2023-08-30T21:16:31.511Z,94.50
2023-08-30T21:19:00.058Z,94.91
2023-08-30T21:21:28.894Z,95.66
2023-08-30T21:24:00.958Z,95.35
2023-08-30T21:26:29.752Z,94.86
2023-08-30T21:28:58.514Z,95.09
2023-08-30T21:31:27.892Z,94.95
2023-08-30T21:33:56.715Z,94.80
2023-08-30T21:36:25.477Z,95.19
2023-08-30T21:38:57.080Z,95.07
2023-08-30T21:41:25.633Z,95.58
2023-08-30T21:43:54.434Z,94.68
2023-08-30T21:46:23.248Z,95.06
2023-08-30T21:48:51.893Z,95.30
2023-08-30T21:51:20.554Z,94.84
2023-08-30T21:53:49.256Z,94.95
2023-08-30T21:56:17.877Z,95.18
2023-08-30T21:58:46.596Z,95.00
2023-08-30T22:01:15.401Z,95.30
2023-08-30T22:03:44.186Z,95.00
2023-08-30T22:06:12.798Z,94.73
2023-08-30T22:08:41.475Z,94.96
2023-08-30T22:11:13.736Z,95.45
2023-08-30T22:13:42.315Z,95.05
2023-08-30T22:16:11.242Z,94.95
2023-08-30T22:18:39.996Z,94.96
2023-08-30T22:21:08.758Z,95.42
2023-08-30T22:23:37.335Z,95.45
2023-08-30T22:26:05.921Z,95.30
2023-08-30T22:28:34.899Z,94.92
2023-08-30T22:31:03.977Z,94.79
2023-08-30T22:33:38.073Z,95.13
2023-08-30T22:36:06.921Z,95.26
2023-08-30T22:38:35.535Z,94.72
2023-08-30T22:41:04.796Z,94.93
2023-08-30T22:43:34.755Z,95.21
2023-08-30T22:46:05.489Z,95.12
2023-08-30T22:48:34.135Z,94.50
2023-08-30T22:51:07.636Z,94.87
2023-08-30T22:53:39.356Z,94.42
2023-08-30T22:56:10.676Z,94.80
2023-08-30T22:58:39.461Z,94.46
2023-08-30T23:01:09.356Z,94.91
2023-08-30T23:03:38.190Z,94.96
2023-08-30T23:06:06.952Z,94.34
2023-08-30T23:08:36.800Z,94.22
2023-08-30T23:11:07.578Z,93.98
2023-08-30T23:13:36.154Z,94.30
2023-08-30T23:16:07.678Z,93.77
2023-08-30T23:18:36.325Z,93.93
2023-08-30T23:21:05.013Z,93.82
2023-08-30T23:23:33.677Z,93.69
2023-08-30T23:26:06.240Z,93.75
2023-08-30T23:28:34.948Z,93.19
2023-08-30T23:31:07.709Z,93.75
2023-08-30T23:33:36.462Z,93.68
2023-08-30T23:36:05.630Z,93.78
2023-08-30T23:38:35.267Z,93.74
2023-08-30T23:41:04.154Z,93.68
2023-08-30T23:43:33.037Z,93.80
2023-08-30T23:46:05.036Z,93.66
2023-08-30T23:48:33.961Z,93.57
2023-08-30T23:51:03.933Z,93.21
2023-08-30T23:53:33.140Z,93.68
2023-08-30T23:56:01.813Z,93.13
2023-08-30T23:58:30.675Z,93.54
